Weather History for Harrisburg, IL

Change the Weather History Date:

Saturday, November 23, 2013

  Actual Average (KMWA) Record (KMWA)
Temperature  
Mean Temperature 31 °F -  
Max Temperature 40 °F 51 °F 71 °F (1998)
Min Temperature 21 °F 32 °F 16 °F (1976)
Degree Days  
Heating Degree Days 34    
Moisture  
Dew Point 22 °F    
Average Humidity 69    
Maximum Humidity 96    
Minimum Humidity 41    
Precipitation  
Precipitation 0.00 in - - ()
Sea Level Pressure  
Sea Level Pressure 30.57 in    
Wind  
Wind Speed 9 mph (NNW)    
Max Wind Speed 18 mph    
Max Gust Speed 24 mph    
Visibility 10 miles    
Events      
Averages and records for this station are not official NWS values.
T = Trace of Precipitation, MM = Missing Value Source: NWS Daily Summary

Daily Weather History Graph

Daily Weather History Graph

Search for Another Location

Airport:

Trip Planner

Search our weather history database for the weather conditions in past years. The results will help you decide how hot, cold, wet, or windy it might be!

Date:

Astronomy

Nov. 23, 2013 Rise Set
Actual Time 6:43 AM CST 4:37 PM CST
Civil Twilight 6:14 AM CST 5:06 PM CST
Nautical Twilight 5:42 AM CST 5:38 PM CST
Astronomical Twilight 5:11 AM CST 6:09 PM CST
Moon 10:03 PM CST (11/23) 11:01 AM CST (11/23)
Length of Visible Light 10h 51m
Length of Day
9h 54m
Waning Gibbous, 69% of the Moon is Illuminated
Nov 23
Waning Gibbous
Nov 25
Last Quarter
Dec 2
New
Dec 9
First Quarter
Dec 17
Full

Hourly Weather History & Observations

Time (CST) Temp. Windchill Dew Point Humidity Pressure Visibility Wind Dir Wind Speed Gust Speed Precip Events Conditions
12:15 AM 38.3 °F 33.2 °F 33.8 °F 84% 30.47 in 10.0 mi North 6.9 mph - N/A   Mostly Cloudy
12:35 AM 37.8 °F 30.2 °F 33.4 °F 84% 30.47 in 10.0 mi North 11.5 mph - N/A   Scattered Clouds
12:55 AM 37.8 °F 32.5 °F 33.3 °F 84% 30.47 in 10.0 mi North 6.9 mph - N/A   Mostly Cloudy
1:15 AM 37.6 °F 31.0 °F 33.1 °F 84% 30.47 in 10.0 mi North 9.2 mph - N/A   Overcast
1:35 AM 37.6 °F 31.0 °F 32.9 °F 83% 30.47 in 10.0 mi North 9.2 mph - N/A   Overcast
1:55 AM 37.0 °F 30.4 °F 32.5 °F 84% 30.47 in 10.0 mi North 9.2 mph - N/A   Overcast
2:15 AM 35.8 °F 30.9 °F 32.0 °F 86% 30.48 in 10.0 mi North 5.8 mph - N/A   Scattered Clouds
2:35 AM 34.9 °F 29.9 °F 32.0 °F 89% 30.48 in 10.0 mi North 5.8 mph - N/A   Clear
2:55 AM 34.7 °F 28.1 °F 31.8 °F 89% 30.48 in 10.0 mi North 8.1 mph - N/A   Clear
3:15 AM 34.5 °F 27.9 °F 31.8 °F 90% 30.47 in 10.0 mi North 8.1 mph - N/A   Scattered Clouds
3:35 AM 33.8 °F 28.6 °F 31.8 °F 92% 30.48 in 10.0 mi NNW 5.8 mph - N/A   Scattered Clouds
3:55 AM 33.3 °F 27.9 °F 31.6 °F 94% 30.48 in 10.0 mi NNW 5.8 mph - N/A   Scattered Clouds
4:15 AM 32.9 °F 28.5 °F 31.3 °F 94% 30.50 in 10.0 mi NNW 4.6 mph - N/A   Scattered Clouds
4:35 AM 32.5 °F 26.2 °F 31.1 °F 94% 30.51 in 10.0 mi NNW 6.9 mph - N/A   Scattered Clouds
4:55 AM 32.2 °F 26.7 °F 30.9 °F 95% 30.52 in 10.0 mi NNW 5.8 mph - N/A   Scattered Clouds
5:15 AM 32.0 °F 27.5 °F 30.6 °F 94% 30.50 in 10.0 mi NNW 4.6 mph - N/A   Clear
5:35 AM 32.0 °F 27.5 °F 30.6 °F 94% 30.51 in 10.0 mi NNW 4.6 mph - N/A   Clear
5:55 AM 32.0 °F 27.5 °F 30.9 °F 96% 30.51 in 10.0 mi NNW 4.6 mph - N/A   Clear
6:15 AM 32.0 °F 25.6 °F 30.9 °F 96% 30.52 in 10.0 mi NNW 6.9 mph - N/A   Clear
6:35 AM 32.0 °F 26.4 °F 30.6 °F 94% 30.53 in 10.0 mi NNW 5.8 mph - N/A   Clear
6:55 AM 31.8 °F 26.2 °F 30.2 °F 94% 30.53 in 10.0 mi NNW 5.8 mph - N/A   Clear
7:15 AM 32.0 °F 25.6 °F 30.7 °F 95% 30.54 in 10.0 mi NNW 6.9 mph - N/A   Clear
7:35 AM 32.5 °F 25.5 °F 31.1 °F 94% 30.54 in 10.0 mi NNW 8.1 mph - N/A   Clear
7:55 AM 32.5 °F 24.8 °F 30.2 °F 91% 30.56 in 10.0 mi NW 9.2 mph - N/A   Clear
8:15 AM 33.1 °F 28.7 °F 29.3 °F 86% 30.56 in 10.0 mi NNW 4.6 mph - N/A   Clear
8:35 AM 33.3 °F 25.7 °F 26.8 °F 77% 30.56 in 10.0 mi NNW 9.2 mph - N/A   Clear
8:55 AM 33.4 °F 27.3 °F 25.9 °F 74% 30.56 in 10.0 mi NW 6.9 mph - N/A   Clear
9:15 AM 34.3 °F 27.7 °F 25.7 °F 71% 30.57 in 10.0 mi NNW 8.1 mph - N/A   Clear
9:35 AM 34.7 °F 28.8 °F 21.2 °F 58% 30.57 in 10.0 mi NW 6.9 mph - N/A   Clear
9:55 AM 36.9 °F 30.7 °F 21.0 °F 53% 30.57 in 10.0 mi NW 8.1 mph 16.1 mph N/A   Clear
10:15 AM 37.4 °F 29.8 °F 20.7 °F 51% 30.57 in 10.0 mi NW 11.5 mph - N/A   Clear
10:35 AM 37.0 °F 29.8 °F 21.9 °F 54% 30.56 in 10.0 mi NW 10.4 mph - N/A   Clear
10:55 AM 37.9 °F 30.9 °F 22.6 °F 54% 30.55 in 10.0 mi West 10.4 mph - N/A   Clear
11:15 AM 39.2 °F 31.6 °F 20.5 °F 47% 30.54 in 10.0 mi NW 12.7 mph 19.6 mph N/A   Clear
11:35 AM 40.1 °F 31.6 °F 18.3 °F 42% 30.53 in 10.0 mi NNW 16.1 mph 23.0 mph N/A   Clear
11:55 AM 40.3 °F 31.9 °F 18.3 °F 41% 30.53 in 10.0 mi NNW 16.1 mph 19.6 mph N/A   Clear
12:15 PM 40.8 °F 34.1 °F 21.7 °F 47% 30.53 in 10.0 mi WNW 11.5 mph 18.4 mph N/A   Clear
12:35 PM 40.8 °F 33.3 °F 21.9 °F 47% 30.54 in 10.0 mi NW 13.8 mph 19.6 mph N/A   Clear
12:55 PM 39.2 °F 29.8 °F 21.9 °F 50% 30.54 in 10.0 mi NNW 18.4 mph 21.9 mph N/A   Clear
1:15 PM 38.3 °F 29.7 °F 21.0 °F 50% 30.54 in 10.0 mi North 15.0 mph 20.7 mph N/A   Clear
1:35 PM 39.0 °F 29.9 °F 22.1 °F 51% 30.55 in 10.0 mi NNW 17.3 mph 23.0 mph N/A   Clear
1:55 PM 35.6 °F 25.5 °F 19.4 °F 52% 30.56 in 10.0 mi NNW 17.3 mph 24.2 mph N/A   Clear
2:15 PM 35.6 °F 27.5 °F 19.8 °F 53% 30.57 in 10.0 mi NNW 11.5 mph 16.1 mph N/A   Clear
2:35 PM 34.3 °F 24.2 °F 17.8 °F 51% 30.57 in 10.0 mi NNW 16.1 mph 19.6 mph N/A   Clear
2:55 PM 34.5 °F 24.5 °F 17.4 °F 50% 30.57 in 10.0 mi NNW 16.1 mph 24.2 mph N/A   Clear
3:15 PM 34.3 °F 25.0 °F 18.1 °F 52% 30.57 in 10.0 mi NNW 13.8 mph 17.3 mph N/A   Clear
3:35 PM 33.8 °F 23.5 °F 17.8 °F 52% 30.58 in 10.0 mi North 16.1 mph 23.0 mph N/A   Scattered Clouds
3:55 PM 32.5 °F 22.7 °F 18.0 °F 55% 30.59 in 10.0 mi North 13.8 mph 23.0 mph N/A   Scattered Clouds
4:15 PM 32.0 °F 23.6 °F 17.8 °F 56% 30.60 in 10.0 mi North 10.4 mph 19.6 mph N/A   Clear
4:35 PM 30.9 °F 20.7 °F 17.8 °F 58% 30.61 in 10.0 mi North 13.8 mph 20.7 mph N/A   Clear
4:55 PM 30.0 °F 21.7 °F 17.6 °F 60% 30.61 in 10.0 mi North 9.2 mph - N/A   Clear
5:15 PM 29.5 °F 18.8 °F 17.6 °F 61% 30.62 in 10.0 mi North 13.8 mph 18.4 mph N/A   Clear
5:35 PM 28.9 °F 18.2 °F 18.5 °F 65% 30.62 in 10.0 mi North 13.8 mph 18.4 mph N/A   Clear
5:55 PM 28.2 °F 18.3 °F 17.8 °F 65% 30.63 in 10.0 mi North 11.5 mph 20.7 mph N/A   Scattered Clouds
6:15 PM 27.5 °F 17.4 °F 15.8 °F 61% 30.64 in 10.0 mi North 11.5 mph 23.0 mph N/A   Scattered Clouds
6:35 PM 26.6 °F 15.2 °F 15.1 °F 62% 30.65 in 10.0 mi NNW 13.8 mph 17.3 mph N/A   Clear
6:55 PM 26.8 °F 17.1 °F 15.6 °F 63% 30.65 in 10.0 mi North 10.4 mph 17.3 mph N/A   Mostly Cloudy
7:15 PM 26.2 °F 15.2 °F 15.8 °F 65% 30.65 in 10.0 mi North 12.7 mph 18.4 mph N/A   Mostly Cloudy
7:35 PM 26.1 °F 16.8 °F 15.1 °F 63% 30.66 in 10.0 mi North 9.2 mph 23.0 mph N/A   Scattered Clouds
7:55 PM 26.2 °F 13.8 °F 14.9 °F 62% 30.66 in 10.0 mi North 16.1 mph - N/A   Mostly Cloudy
8:15 PM 25.3 °F 13.1 °F 14.5 °F 64% 30.67 in 10.0 mi North 15.0 mph 19.6 mph N/A   Mostly Cloudy
8:35 PM 24.8 °F 13.4 °F 13.6 °F 63% 30.67 in 10.0 mi North 12.7 mph 23.0 mph N/A   Scattered Clouds
8:55 PM 24.8 °F 14.0 °F 13.6 °F 63% 30.68 in 10.0 mi North 11.5 mph 18.4 mph N/A   Mostly Cloudy
9:15 PM 25.3 °F 16.0 °F 14.0 °F 62% 30.69 in 10.0 mi North 9.2 mph 23.0 mph N/A   Overcast
9:35 PM 25.3 °F 14.1 °F 14.2 °F 63% 30.69 in 10.0 mi NNE 12.7 mph 17.3 mph N/A   Overcast
9:55 PM 24.6 °F 11.7 °F 12.7 °F 61% 30.69 in 10.0 mi NNE 16.1 mph 19.6 mph N/A   Overcast
10:15 PM 23.9 °F 10.8 °F 12.0 °F 61% 30.69 in 10.0 mi North 16.1 mph 20.7 mph N/A   Mostly Cloudy
10:35 PM 23.7 °F 14.0 °F 11.8 °F 61% 30.70 in 10.0 mi North 9.2 mph 18.4 mph N/A   Overcast
10:55 PM 23.7 °F 14.7 °F 12.0 °F 61% 30.70 in 10.0 mi North 8.1 mph 17.3 mph N/A   Overcast
11:15 PM 22.8 °F 14.5 °F 11.5 °F 62% 30.70 in 10.0 mi North 6.9 mph - N/A   Mostly Cloudy
11:35 PM 22.5 °F 13.2 °F 10.2 °F 59% 30.70 in 10.0 mi North 8.1 mph 20.7 mph N/A   Scattered Clouds
11:55 PM 21.9 °F 11.0 °F 10.6 °F 62% 30.70 in 10.0 mi NNE 10.4 mph - N/A   Clear